Time;durP1;ratioP1;P1;durP2;ratioP2;P2;SDS_P1;SDS_P2;PMS_P1;PMS_P2;Temp;Humidity;BMP_temperature;BMP_pressure;BME280_temperature;BME280_humidity;BME280_pressure;Samples;Min_cycle;Max_cycle;Signal;HPM_P1;HPM_P2
2022/11/09 00:00:39;;;;;;;44.33;28.50;;;;;;;11.61;91.07;95448.59;5071525;28;20490;-75
2022/11/09 00:03:06;;;;;;;41.97;27.40;;;;;;;11.51;90.64;95450.25;5071294;28;20449;-74
2022/11/09 00:05:33;;;;;;;48.20;28.67;;;;;;;11.49;89.73;95454.78;5071694;28;20448;-75
2022/11/09 00:08:01;;;;;;;43.33;29.17;;;;;;;11.48;90.53;95455.75;5071444;28;20448;-75
2022/11/09 00:10:28;;;;;;;50.97;29.10;;;;;;;11.49;90.92;95454.78;5071761;28;20786;-74
2022/11/09 00:12:55;;;;;;;49.13;29.27;;;;;;;11.42;90.79;95446.56;5071195;28;20843;-75
2022/11/09 00:15:21;;;;;;;44.10;30.80;;;;;;;11.42;90.65;95456.25;5071508;28;20949;-75
2022/11/09 00:17:48;;;;;;;44.53;29.83;;;;;;;11.41;90.33;95457.22;5071478;28;20810;-74
2022/11/09 00:20:15;;;;;;;39.83;28.53;;;;;;;11.39;90.85;95457.31;5071466;28;20491;-75
2022/11/09 00:22:42;;;;;;;47.97;30.50;;;;;;;11.34;90.49;95450.78;5036025;28;20444;-74
2022/11/09 00:25:10;;;;;;;49.40;31.40;;;;;;;11.28;90.51;95464.41;5036231;28;20846;-74
2022/11/09 00:27:37;;;;;;;45.50;27.87;;;;;;;11.25;90.83;95456.72;5035714;28;20506;-74
2022/11/09 00:30:05;;;;;;;49.20;29.47;;;;;;;11.25;91.38;95457.56;5074330;28;20442;-74
2022/11/09 00:32:31;;;;;;;47.03;28.20;;;;;;;11.23;90.23;95462.09;5075137;28;20441;-73
2022/11/09 00:34:58;;;;;;;46.57;31.33;;;;;;;11.22;90.86;95451.72;5074839;28;20453;-74
2022/11/09 00:37:25;;;;;;;49.50;29.50;;;;;;;11.17;91.03;95455.53;5075314;28;20456;-74
2022/11/09 00:39:52;;;;;;;43.30;27.53;;;;;;;11.16;90.78;95450.41;5074396;28;20545;-74
2022/11/09 00:42:20;;;;;;;44.17;26.87;;;;;;;11.11;92.49;95448.16;5074793;28;20446;-74
2022/11/09 00:44:47;;;;;;;46.73;29.57;;;;;;;11.09;91.47;95450.06;5074714;28;20941;-74
2022/11/09 00:47:13;;;;;;;51.90;29.30;;;;;;;11.08;92.41;95447.56;5074615;28;20503;-74
2022/11/09 00:49:40;;;;;;;44.17;26.40;;;;;;;11.07;92.11;95449.34;5074604;28;20941;-74
2022/11/09 00:52:07;;;;;;;42.13;27.13;;;;;;;11.03;92.10;95442.66;5074342;28;20441;-74
2022/11/09 00:54:34;;;;;;;41.93;27.57;;;;;;;11.04;92.11;95441.72;5074345;28;20441;-74
2022/11/09 00:57:00;;;;;;;48.27;28.60;;;;;;;11.02;91.68;95441.00;5039091;28;20496;-74
2022/11/09 00:59:28;;;;;;;44.60;28.53;;;;;;;11.05;92.04;95439.91;5074697;28;20446;-74
2022/11/09 01:01:55;;;;;;;44.73;28.57;;;;;;;11.06;92.99;95447.69;5074386;28;20451;-74
2022/11/09 01:04:22;;;;;;;51.30;29.70;;;;;;;11.08;91.86;95447.56;5074214;28;20457;-74
2022/11/09 01:06:49;;;;;;;51.83;30.40;;;;;;;11.05;91.96;95446.00;5074224;28;20461;-74
2022/11/09 01:09:15;;;;;;;53.53;30.00;;;;;;;11.05;91.62;95437.28;5074335;28;20496;-74
2022/11/09 01:11:42;;;;;;;50.80;29.50;;;;;;;11.04;91.55;95441.72;5055257;28;20446;-74
2022/11/09 01:14:09;;;;;;;47.90;30.37;;;;;;;11.06;92.24;95444.22;5074368;28;20443;-74
2022/11/09 01:16:39;;;;;;;47.00;30.07;;;;;;;11.07;91.60;95444.09;5073979;28;20439;-74
2022/11/09 01:19:06;;;;;;;50.27;30.60;;;;;;;11.09;92.27;95442.19;5074135;28;20454;-74
2022/11/09 01:21:32;;;;;;;52.93;32.70;;;;;;;11.09;91.83;95439.56;5073804;28;20487;-74
2022/11/09 01:24:00;;;;;;;52.00;30.30;;;;;;;11.12;91.13;95443.72;5074233;28;20436;-74
2022/11/09 01:26:28;;;;;;;47.40;29.00;;;;;;;11.14;92.23;95445.28;5073957;28;20438;-73
2022/11/09 01:28:54;;;;;;;50.10;29.80;;;;;;;11.16;91.67;95445.16;5073869;28;20922;-74
2022/11/09 01:31:22;;;;;;;52.00;29.57;;;;;;;11.15;92.19;95438.22;5074150;28;20454;-74
2022/11/09 01:33:50;;;;;;;45.67;28.87;;;;;;;11.16;92.41;95440.75;5073824;28;20500;-74
2022/11/09 01:36:19;;;;;;;45.83;27.87;;;;;;;11.21;92.93;95431.66;5073730;28;20508;-74
2022/11/09 01:38:47;;;;;;;44.43;30.00;;;;;;;11.24;92.74;95432.25;5073844;28;20446;-75
2022/11/09 01:41:15;;;;;;;45.53;29.03;;;;;;;11.27;92.04;95434.63;5072314;28;20996;-74
2022/11/09 01:43:43;;;;;;;41.67;29.37;;;;;;;11.31;92.95;95430.00;5073723;28;20528;-74
2022/11/09 01:46:20;;;;;;;45.20;29.73;;;;;;;11.35;92.50;95423.53;5054830;28;20446;-74
2022/11/09 01:48:49;;;;;;;43.83;29.13;;;;;;;11.36;92.18;95425.22;5073332;28;20447;-75
2022/11/09 01:51:24;;;;;;;43.33;27.87;;;;;;;11.33;93.73;95435.97;5073507;28;20447;-74
2022/11/09 01:53:56;;;;;;;49.50;31.27;;;;;;;11.24;94.02;95429.63;5073332;28;20565;-74
2022/11/09 01:56:22;;;;;;;45.20;27.70;;;;;;;11.23;94.88;95429.75;5073106;28;20482;-74
2022/11/09 01:58:53;;;;;;;50.93;29.87;;;;;;;11.14;95.79;95426.91;5073023;28;20756;-74
2022/11/09 02:01:21;;;;;;;50.30;29.87;;;;;;;11.16;95.54;95435.47;5073081;28;20486;-74
2022/11/09 02:03:53;;;;;;;46.53;30.13;;;;;;;11.12;96.21;95427.97;5073053;28;20950;-74
2022/11/09 02:06:23;;;;;;;47.63;28.90;;;;;;;11.07;96.26;95428.34;5073319;28;20699;-74
2022/11/09 02:08:55;;;;;;;54.07;32.03;;;;;;;11.10;96.37;95429.88;5037485;28;20930;-74
2022/11/09 02:11:24;;;;;;;46.77;31.10;;;;;;;11.13;97.12;95432.28;5073524;28;20459;-75
2022/11/09 02:13:56;;;;;;;46.77;28.97;;;;;;;11.16;96.01;95424.97;5073280;28;20450;-74
2022/11/09 02:16:23;;;;;;;41.63;27.40;;;;;;;11.19;96.36;95423.91;5072827;28;20437;-74
2022/11/09 02:18:52;;;;;;;49.80;31.50;;;;;;;11.24;95.59;95432.25;5073187;28;20497;-74
2022/11/09 02:21:21;;;;;;;44.40;28.83;;;;;;;11.21;95.78;95434.28;5072737;28;20850;-74
2022/11/09 02:23:49;;;;;;;52.57;31.43;;;;;;;11.04;96.24;95436.47;5073321;28;20447;-74
2022/11/09 02:26:25;;;;;;;47.80;28.77;;;;;;;11.03;96.25;95440.03;5072466;28;20447;-74
2022/11/09 02:28:53;;;;;;;43.37;25.63;;;;;;;11.03;96.58;95439.19;5072775;28;20511;-75
2022/11/09 02:31:21;;;;;;;53.33;29.70;;;;;;;11.06;95.91;95439.78;5072497;28;20509;-74
2022/11/09 02:33:55;;;;;;;57.23;29.97;;;;;;;11.09;95.93;95450.06;5072606;28;20472;-74
2022/11/09 02:36:24;;;;;;;45.67;28.77;;;;;;;11.12;96.39;95446.34;5072246;28;20452;-75
2022/11/09 02:38:52;;;;;;;52.07;29.90;;;;;;;11.18;96.45;95448.50;5072247;28;20983;-75
2022/11/09 02:41:21;;;;;;;42.23;27.97;;;;;;;11.22;96.03;95452.56;5072321;28;20486;-75
2022/11/09 02:43:49;;;;;;;51.33;31.47;;;;;;;11.17;95.04;95441.56;5072429;28;20475;-75
2022/11/09 02:46:23;;;;;;;52.23;31.23;;;;;;;11.23;94.94;95441.09;5053456;28;20435;-75
2022/11/09 02:48:50;;;;;;;45.43;29.80;;;;;;;11.28;95.02;95448.63;5072370;28;20442;-74
2022/11/09 02:51:17;;;;;;;42.30;28.20;;;;;;;11.33;95.35;95441.22;5071868;28;20458;-74
2022/11/09 02:53:45;;;;;;;45.83;28.97;;;;;;;11.36;95.37;95440.97;5072438;28;20475;-74
2022/11/09 02:56:11;;;;;;;56.73;29.63;;;;;;;11.40;95.25;95450.28;5072033;28;20466;-75
2022/11/09 02:58:38;;;;;;;45.20;28.30;;;;;;;11.43;94.55;95447.41;5053327;28;20435;-75
2022/11/09 03:01:05;;;;;;;44.93;30.77;;;;;;;11.47;94.89;95448.84;5072111;28;20541;-74
2022/11/09 03:03:32;;;;;;;38.33;28.00;;;;;;;11.50;94.37;95448.59;5071870;28;20942;-75
2022/11/09 03:05:59;;;;;;;44.63;28.93;;;;;;;11.52;94.65;95446.66;5072043;28;20444;-74
2022/11/09 03:08:26;;;;;;;40.23;27.37;;;;;;;11.55;93.84;95450.84;5072195;28;20455;-75
2022/11/09 03:10:54;;;;;;;47.63;30.00;;;;;;;11.54;93.17;95457.88;5072061;28;20450;-75
2022/11/09 03:13:21;;;;;;;49.40;27.43;;;;;;;11.52;93.09;95451.91;5072036;28;20443;-75
2022/11/09 03:15:47;;;;;;;46.40;27.60;;;;;;;11.53;92.76;95455.38;5071966;28;20443;-75
2022/11/09 03:18:14;;;;;;;47.97;30.20;;;;;;;11.51;91.81;95454.69;5072430;28;20843;-74
2022/11/09 03:20:41;;;;;;;46.70;28.50;;;;;;;11.48;92.65;95451.34;5072246;28;20529;-75
2022/11/09 03:23:09;;;;;;;44.97;29.47;;;;;;;11.44;91.58;95456.97;5071982;28;20451;-75
2022/11/09 03:25:37;;;;;;;37.63;27.13;;;;;;;11.42;91.71;95453.63;5071854;28;20485;-74
2022/11/09 03:28:06;;;;;;;44.40;26.43;;;;;;;11.42;91.83;95456.25;5071855;28;20452;-75
2022/11/09 03:30:34;;;;;;;40.47;26.70;;;;;;;11.40;92.12;95455.53;5052794;28;20454;-75
2022/11/09 03:33:03;;;;;;;45.07;28.33;;;;;;;11.40;91.94;95455.53;5071510;28;20442;-75
2022/11/09 03:35:30;;;;;;;44.13;28.33;;;;;;;11.39;91.62;95452.06;5072044;28;20505;-75
2022/11/09 03:37:56;;;;;;;40.00;27.57;;;;;;;11.33;91.58;95452.56;5071875;28;20464;-75
2022/11/09 03:40:23;;;;;;;41.23;25.30;;;;;;;11.31;91.70;95458.91;5052474;28;20539;-74
2022/11/09 03:42:50;;;;;;;40.13;25.60;;;;;;;11.28;90.93;95464.41;5071715;28;20446;-74
2022/11/09 03:45:18;;;;;;;42.57;27.87;;;;;;;11.23;90.95;95467.34;5071366;28;20493;-74
2022/11/09 03:47:46;;;;;;;40.77;27.77;;;;;;;11.19;90.40;95465.94;5072087;28;20504;-74
2022/11/09 03:50:15;;;;;;;39.80;24.77;;;;;;;11.13;90.96;95463.78;5071788;28;20451;-74
2022/11/09 03:52:44;;;;;;;37.93;26.60;;;;;;;11.09;90.66;95460.56;5071578;28;20474;-74
2022/11/09 03:55:11;;;;;;;42.93;25.83;;;;;;;11.06;90.33;95463.44;5071515;28;20446;-74
2022/11/09 03:57:38;;;;;;;43.43;25.07;;;;;;;11.01;90.93;95460.34;5071721;28;20472;-74
2022/11/09 04:00:06;;;;;;;37.77;24.43;;;;;;;10.95;90.64;95463.41;5071355;28;20443;-74
2022/11/09 04:02:35;;;;;;;45.70;23.80;;;;;;;10.93;90.86;95467.09;5071812;28;20499;-75
2022/11/09 04:05:01;;;;;;;37.03;23.80;;;;;;;10.91;90.14;95466.38;5074712;28;20438;-74
2022/11/09 04:07:28;;;;;;;34.90;25.17;;;;;;;10.86;90.30;95467.59;5075557;28;20851;-75
2022/11/09 04:09:55;;;;;;;36.33;24.83;;;;;;;10.80;90.01;95464.59;5075350;28;20928;-74
2022/11/09 04:12:22;;;;;;;39.03;23.27;;;;;;;10.77;90.59;95467.47;5075529;28;20450;-74
2022/11/09 04:14:48;;;;;;;41.00;24.30;;;;;;;10.72;90.80;95467.81;5075467;28;20442;-74
2022/11/09 04:17:15;;;;;;;39.30;24.00;;;;;;;10.69;91.39;95462.78;5075434;28;20443;-74
2022/11/09 04:19:43;;;;;;;45.60;24.17;;;;;;;10.67;90.87;95461.22;5075453;28;20455;-74
2022/11/09 04:22:10;;;;;;;44.50;23.60;;;;;;;10.67;91.05;95459.44;5074784;28;20912;-74
2022/11/09 04:24:37;;;;;;;43.43;25.00;;;;;;;10.65;91.08;95463.97;5075069;28;20447;-75
2022/11/09 04:27:04;;;;;;;41.47;24.60;;;;;;;10.65;91.06;95460.50;5074835;28;20865;-74
2022/11/09 04:29:31;;;;;;;38.87;25.77;;;;;;;10.63;90.74;95465.03;5074779;28;20454;-74
2022/11/09 04:31:57;;;;;;;35.90;24.80;;;;;;;10.63;90.64;95463.25;5056491;28;20496;-74
2022/11/09 04:34:24;;;;;;;42.37;25.00;;;;;;;10.62;90.68;95466.00;5072154;28;20469;-74
2022/11/09 04:36:52;;;;;;;43.07;26.90;;;;;;;10.58;90.80;95462.75;5056569;28;20462;-74
2022/11/09 04:39:19;;;;;;;41.07;24.17;;;;;;;10.59;90.13;95460.97;5075201;28;20472;-74
2022/11/09 04:41:46;;;;;;;40.40;25.27;;;;;;;10.26;91.52;95462.56;5075123;28;21053;-75
2022/11/09 04:44:12;;;;;;;37.40;23.93;;;;;;;10.24;91.29;95467.09;5039838;28;20452;-74
2022/11/09 04:46:39;;;;;;;37.73;26.67;;;;;;;10.19;92.18;95463.94;5075356;28;20510;-74
2022/11/09 04:49:06;;;;;;;39.30;23.40;;;;;;;10.16;91.78;95458.94;5075144;28;20436;-74
2022/11/09 04:51:33;;;;;;;38.73;23.97;;;;;;;10.16;92.77;95465.00;5056169;28;20451;-74
2022/11/09 04:54:01;;;;;;;37.17;25.83;;;;;;;10.15;91.99;95467.75;5074726;28;20465;-74
2022/11/09 04:56:28;;;;;;;38.37;23.40;;;;;;;10.16;91.95;95472.03;5056101;28;20511;-73
2022/11/09 04:58:55;;;;;;;34.13;24.40;;;;;;;10.13;91.93;95470.47;5075168;28;20911;-74
2022/11/09 05:01:22;;;;;;;36.23;24.10;;;;;;;10.14;91.76;95472.16;5055874;28;20841;-74
2022/11/09 05:03:49;;;;;;;40.30;23.40;;;;;;;10.13;91.56;95480.97;5074901;28;20449;-74
2022/11/09 05:06:33;;;;;;;38.13;24.90;;;;;;;10.12;91.87;95478.44;5039110;28;20449;-74
2022/11/09 05:09:04;;;;;;;50.93;24.87;;;;;;;10.11;92.59;95479.38;5074902;28;20445;-74
2022/11/09 05:11:33;;;;;;;36.33;25.00;;;;;;;10.11;92.01;95484.63;5074989;28;20478;-75
2022/11/09 05:14:00;;;;;;;43.97;25.97;;;;;;;10.08;91.97;95490.09;5074800;28;21001;-75
2022/11/09 05:16:28;;;;;;;42.50;23.73;;;;;;;10.07;92.36;95488.41;5074751;28;20946;-75
2022/11/09 05:18:55;;;;;;;43.00;26.57;;;;;;;10.01;92.33;95491.50;5039432;28;20441;-76
2022/11/09 05:21:22;;;;;;;45.20;26.77;;;;;;;10.04;93.18;95496.50;5074699;28;20574;-75
2022/11/09 05:23:59;;;;;;;34.63;23.20;;;;;;;10.04;92.98;95496.50;5074626;28;20499;-76
2022/11/09 05:26:30;;;;;;;40.53;27.03;;;;;;;10.04;93.36;95496.50;5074385;28;20481;-75
2022/11/09 05:28:57;;;;;;;42.70;26.43;;;;;;;10.07;94.04;95501.53;5074492;28;20924;-74
2022/11/09 05:31:24;;;;;;;36.20;24.37;;;;;;;10.03;93.45;95503.53;5074289;28;20453;-74
2022/11/09 05:33:52;;;;;;;38.33;25.83;;;;;;;10.00;93.64;95503.78;5074267;28;20947;-74
2022/11/09 05:36:19;;;;;;;44.70;26.77;;;;;;;9.88;93.36;95496.81;5074239;28;20491;-74
2022/11/09 05:38:46;;;;;;;42.27;23.87;;;;;;;9.90;93.54;95505.41;5074580;28;20445;-74
2022/11/09 05:41:16;;;;;;;43.53;25.70;;;;;;;9.92;93.62;95504.34;5073483;28;20480;-74
2022/11/09 05:43:45;;;;;;;41.37;26.57;;;;;;;9.97;93.82;95508.41;5074049;28;20449;-75
2022/11/09 05:46:13;;;;;;;38.20;26.13;;;;;;;10.08;93.31;95505.81;5074052;28;20484;-75
2022/11/09 05:48:40;;;;;;;51.37;25.37;;;;;;;10.23;94.03;95507.38;5074359;28;20450;-75
2022/11/09 05:51:09;;;;;;;45.97;25.80;;;;;;;10.44;93.57;95507.59;5073828;28;20450;-74
2022/11/09 05:53:36;;;;;;;41.30;25.60;;;;;;;10.67;93.38;95505.84;5073636;28;20863;-75
2022/11/09 05:56:04;;;;;;;40.70;23.73;;;;;;;10.93;91.78;95509.94;5073973;28;20503;-75
2022/11/09 05:58:35;;;;;;;45.90;26.70;;;;;;;11.14;93.56;95516.19;5073904;28;20442;-77
2022/11/09 06:01:04;;;;;;;45.47;25.63;;;;;;;11.35;92.33;95513.72;5073784;28;20988;-75
2022/11/09 06:03:31;;;;;;;41.47;25.80;;;;;;;11.52;91.98;95520.25;5055090;28;20445;-77
2022/11/09 06:06:01;;;;;;;34.27;24.13;;;;;;;11.68;90.76;95523.38;5073709;28;20516;-76
2022/11/09 06:08:28;;;;;;;48.40;27.40;;;;;;;11.89;90.73;95522.66;5073904;28;20483;-76
2022/11/09 06:10:59;;;;;;;45.90;25.30;;;;;;;12.03;88.89;95527.63;5073779;28;20448;-76
2022/11/09 06:13:26;;;;;;;40.93;25.90;;;;;;;12.16;88.76;95533.59;5073810;28;20480;-76
2022/11/09 06:15:54;;;;;;;42.40;27.10;;;;;;;12.31;89.54;95528.88;5073726;28;20491;-76
2022/11/09 06:18:23;;;;;;;45.90;29.53;;;;;;;12.44;88.27;95534.00;5073512;28;20476;-76
2022/11/09 06:20:52;;;;;;;43.13;28.83;;;;;;;12.61;88.36;95526.34;5067157;28;20468;-76
2022/11/09 06:23:24;;;;;;;41.73;28.20;;;;;;;12.81;87.60;95529.16;5054002;28;20532;-76
2022/11/09 06:25:51;;;;;;;35.90;24.97;;;;;;;12.67;86.01;95540.81;5065984;28;20458;-76
2022/11/09 06:28:18;;;;;;;45.17;28.47;;;;;;;12.77;87.27;95540.91;5073170;28;20459;-76
2022/11/09 06:30:45;;;;;;;51.63;31.07;;;;;;;12.80;86.01;95541.47;5062993;28;20496;-76
2022/11/09 06:33:12;;;;;;;47.03;33.17;;;;;;;12.90;86.43;95545.00;5053381;28;20456;-75
2022/11/09 06:35:40;;;;;;;51.87;31.87;;;;;;;12.99;85.67;95544.22;5031456;28;20453;-76
2022/11/09 06:38:07;;;;;;;45.20;31.73;;;;;;;12.90;83.27;95541.53;5056036;28;20514;-76
2022/11/09 06:40:35;;;;;;;55.87;33.00;;;;;;;12.91;83.60;95543.19;5063461;28;20509;-76
2022/11/09 06:43:03;;;;;;;55.30;31.93;;;;;;;12.70;84.55;95540.53;5066891;28;20480;-76
2022/11/09 06:45:30;;;;;;;44.20;29.13;;;;;;;12.73;84.73;95544.75;5072725;28;20437;-76
2022/11/09 06:47:58;;;;;;;51.97;32.47;;;;;;;12.47;85.85;95542.47;5072377;28;20502;-76
2022/11/09 06:50:28;;;;;;;58.23;33.97;;;;;;;12.35;87.60;95549.53;5072099;28;20449;-76
2022/11/09 06:52:58;;;;;;;63.40;38.53;;;;;;;12.44;87.86;95536.63;5072360;28;20533;-77
2022/11/09 06:55:25;;;;;;;56.10;34.90;;;;;;;12.41;88.72;95545.56;5072239;28;20537;-76
2022/11/09 06:57:52;;;;;;;58.37;36.53;;;;;;;12.32;88.87;95546.34;5072234;28;20438;-76
2022/11/09 07:00:20;;;;;;;62.73;40.57;;;;;;;12.28;89.92;95540.50;5036846;28;20447;-77
2022/11/09 07:02:46;;;;;;;64.40;40.50;;;;;;;12.05;90.81;95533.59;5071936;28;20503;-76
2022/11/09 07:05:13;;;;;;;56.83;38.57;;;;;;;12.26;91.02;95538.94;5072304;28;20502;-77
2022/11/09 07:07:40;;;;;;;56.03;36.33;;;;;;;12.42;90.95;95534.09;5072640;28;20502;-76
2022/11/09 07:10:12;;;;;;;58.57;36.57;;;;;;;12.59;91.19;95541.44;5072397;28;20440;-76
2022/11/09 07:12:41;;;;;;;55.47;35.00;;;;;;;12.67;90.62;95535.53;5071978;28;20449;-77
2022/11/09 07:15:10;;;;;;;54.43;34.70;;;;;;;12.84;90.29;95539.41;5072280;28;21005;-77
2022/11/09 07:17:38;;;;;;;57.33;34.60;;;;;;;12.87;90.39;95536.53;5036891;28;20487;-76
2022/11/09 07:20:06;;;;;;;62.77;36.10;;;;;;;12.94;90.07;95532.41;5071710;28;20449;-76
2022/11/09 07:22:38;;;;;;;53.53;33.80;;;;;;;12.95;90.05;95534.06;5071772;28;20541;-75
2022/11/09 07:25:06;;;;;;;54.73;35.83;;;;;;;12.92;90.82;95527.28;5071788;28;20452;-77
2022/11/09 07:27:34;;;;;;;59.93;36.93;;;;;;;13.02;90.85;95525.56;5036677;28;20447;-77
2022/11/09 07:30:01;;;;;;;58.33;36.37;;;;;;;12.90;91.54;95523.94;5071842;28;20452;-77
2022/11/09 07:32:28;;;;;;;51.90;32.43;;;;;;;13.03;91.95;95519.31;5071444;28;20923;-77
2022/11/09 07:34:57;;;;;;;57.67;36.03;;;;;;;13.13;91.32;95522.00;5071879;28;20455;-77
2022/11/09 07:37:23;;;;;;;53.67;32.43;;;;;;;13.28;91.20;95519.88;5071572;28;20826;-77
2022/11/09 07:39:50;;;;;;;42.30;30.13;;;;;;;13.44;91.52;95525.50;5071212;28;20444;-77
2022/11/09 07:42:17;;;;;;;51.50;32.77;;;;;;;13.52;90.38;95522.22;5071925;28;20476;-77
2022/11/09 07:44:45;;;;;;;59.23;35.53;;;;;;;13.61;89.77;95518.81;5071721;28;20951;-77
2022/11/09 07:47:12;;;;;;;52.33;32.50;;;;;;;13.54;89.22;95520.28;5071727;28;20441;-78
2022/11/09 07:49:38;;;;;;;50.67;32.53;;;;;;;13.67;89.21;95527.97;5071651;28;20444;-77
2022/11/09 07:52:05;;;;;;;52.30;33.63;;;;;;;13.78;89.21;95519.94;5071534;28;20935;-76
2022/11/09 07:54:32;;;;;;;53.47;35.67;;;;;;;13.91;88.85;95525.84;5071473;28;20573;-75
2022/11/09 07:56:59;;;;;;;53.73;32.73;;;;;;;13.91;87.58;95524.03;5071533;28;20475;-76
2022/11/09 07:59:25;;;;;;;52.87;32.93;;;;;;;13.86;87.75;95528.03;5071202;28;20453;-77
2022/11/09 08:01:54;;;;;;;60.17;34.73;;;;;;;13.88;88.04;95528.75;5071838;28;20492;-76
2022/11/09 08:04:20;;;;;;;49.17;33.43;;;;;;;13.82;87.36;95534.53;5071775;28;20452;-76
2022/11/09 08:06:47;;;;;;;48.30;31.57;;;;;;;13.85;88.29;95529.00;5071517;28;20441;-77
2022/11/09 08:09:14;;;;;;;52.70;33.57;;;;;;;13.96;88.61;95531.53;5071638;28;20444;-77
2022/11/09 08:11:41;;;;;;;46.10;31.83;;;;;;;13.99;87.61;95533.91;5071686;28;20452;-77
2022/11/09 08:14:07;;;;;;;56.50;34.00;;;;;;;14.05;87.46;95535.16;5071317;28;20445;-77
2022/11/09 08:16:34;;;;;;;61.40;36.90;;;;;;;14.11;87.19;95532.81;5071380;28;20445;-77
2022/11/09 08:19:02;;;;;;;58.30;33.33;;;;;;;14.23;87.07;95534.38;5071443;28;20445;-77
2022/11/09 08:21:29;;;;;;;57.97;30.87;;;;;;;14.29;86.04;95534.81;5071272;28;21014;-77
2022/11/09 08:23:56;;;;;;;65.40;34.53;;;;;;;14.38;86.42;95533.97;5071201;28;20489;-77
2022/11/09 08:26:23;;;;;;;46.57;32.33;;;;;;;14.35;86.20;95534.25;5071054;28;20448;-77
2022/11/09 08:28:49;;;;;;;46.97;32.90;;;;;;;14.05;86.61;95536.00;5071524;28;20493;-77
2022/11/09 08:31:16;;;;;;;55.63;34.63;;;;;;;14.10;86.92;95538.22;5071402;28;20501;-77
2022/11/09 08:33:43;;;;;;;47.83;33.67;;;;;;;14.12;86.33;95533.66;5036151;28;20506;-77
2022/11/09 08:36:13;;;;;;;56.20;35.70;;;;;;;14.12;85.81;95531.00;5071376;28;20452;-77
2022/11/09 08:38:41;;;;;;;48.80;31.43;;;;;;;14.22;85.50;95524.78;5071389;28;20445;-77
2022/11/09 08:41:07;;;;;;;55.23;32.30;;;;;;;14.36;85.24;95535.91;5051981;28;20432;-77
2022/11/09 08:43:37;;;;;;;51.00;30.87;;;;;;;14.45;84.63;95528.03;5071451;28;20476;-77
2022/11/09 08:46:04;;;;;;;55.50;33.40;;;;;;;14.52;84.07;95526.53;5071426;28;20852;-77
2022/11/09 08:48:31;;;;;;;45.23;29.60;;;;;;;14.45;83.58;95532.47;5071261;28;20498;-77
2022/11/09 08:50:59;;;;;;;59.20;32.77;;;;;;;14.61;83.30;95527.50;5073735;28;20444;-77
2022/11/09 08:53:29;;;;;;;46.60;30.70;;;;;;;14.68;82.72;95533.03;5074445;28;20966;-77
2022/11/09 08:55:56;;;;;;;47.30;30.30;;;;;;;14.86;82.16;95531.38;5039069;28;20448;-77
2022/11/09 08:58:23;;;;;;;51.97;31.37;;;;;;;14.99;82.14;95531.06;5074399;28;20498;-77
2022/11/09 09:00:50;;;;;;;44.80;28.50;;;;;;;15.02;81.70;95528.97;5074534;28;20444;-77
2022/11/09 09:03:17;;;;;;;48.93;29.57;;;;;;;15.08;80.26;95538.19;5039113;28;20546;-77
2022/11/09 09:05:44;;;;;;;45.57;29.23;;;;;;;15.23;80.33;95528.81;5074557;28;20452;-78
2022/11/09 09:08:14;;;;;;;50.37;30.50;;;;;;;15.40;79.96;95525.44;5074081;28;20503;-77
2022/11/09 09:10:42;;;;;;;48.90;31.97;;;;;;;15.49;79.36;95518.44;5055509;28;20498;-77
2022/11/09 09:13:09;;;;;;;48.90;33.23;;;;;;;15.70;79.38;95523.56;5074757;28;20445;-77
2022/11/09 09:15:36;;;;;;;46.63;28.87;;;;;;;15.78;77.63;95524.47;5039118;28;20930;-77
2022/11/09 09:18:04;;;;;;;49.93;30.80;;;;;;;15.86;78.45;95525.56;5074222;28;20467;-77
2022/11/09 09:20:31;;;;;;;46.30;29.97;;;;;;;15.98;77.35;95524.41;5074263;28;20492;-77
2022/11/09 09:22:59;;;;;;;45.43;31.13;;;;;;;16.08;76.97;95528.66;5074067;28;20494;-77
2022/11/09 09:25:26;;;;;;;41.67;29.70;;;;;;;16.23;76.67;95530.81;5039043;28;20528;-77
2022/11/09 09:27:54;;;;;;;51.37;32.30;;;;;;;16.24;75.72;95529.81;5074033;28;20443;-77
2022/11/09 09:30:21;;;;;;;48.80;31.60;;;;;;;16.30;75.91;95523.94;5038660;28;20444;-77
2022/11/09 09:32:48;;;;;;;50.03;29.97;;;;;;;16.25;75.42;95520.91;5074145;28;20448;-77
2022/11/09 09:35:15;;;;;;;38.67;28.37;;;;;;;16.28;75.92;95516.13;5073621;28;20451;-77
2022/11/09 09:37:42;;;;;;;45.00;28.30;;;;;;;16.35;76.12;95517.19;5073964;28;20447;-77
2022/11/09 09:40:22;;;;;;;46.20;29.83;;;;;;;16.39;75.16;95515.91;5074183;28;20440;-77
2022/11/09 09:42:49;;;;;;;46.03;26.93;;;;;;;16.40;75.26;95514.09;5073445;28;20888;-77
2022/11/09 09:45:21;;;;;;;45.67;29.87;;;;;;;16.40;74.62;95506.13;5073533;28;20451;-77
2022/11/09 09:47:53;;;;;;;58.77;30.73;;;;;;;16.44;74.47;95499.56;5074061;28;20448;-77
2022/11/09 09:50:24;;;;;;;48.37;27.43;;;;;;;16.51;74.16;95498.00;5073702;28;20440;-77
2022/11/09 09:52:56;;;;;;;43.40;28.50;;;;;;;16.40;73.85;95499.03;5073439;28;20472;-77
2022/11/09 09:55:29;;;;;;;39.90;27.17;;;;;;;16.26;74.13;95499.56;5073260;28;20448;-77
2022/11/09 09:58:03;;;;;;;40.33;27.00;;;;;;;16.33;73.28;95497.97;5073759;28;20453;-77
2022/11/09 10:00:33;;;;;;;39.03;25.90;;;;;;;16.29;73.37;95498.44;5073117;28;20862;-77
2022/11/09 10:03:01;;;;;;;33.33;23.70;;;;;;;16.08;73.82;95494.22;5072993;28;20519;-77
2022/11/09 10:05:45;;;;;;;36.77;24.77;;;;;;;15.85;75.01;95487.66;5073538;28;20501;-77
2022/11/09 10:08:21;;;;;;;34.47;27.07;;;;;;;15.90;74.67;95485.44;5073561;28;20495;-77
2022/11/09 10:11:03;;;;;;;47.30;27.93;;;;;;;16.08;74.04;95481.00;5073100;28;20487;-76
2022/11/09 10:14:02;;;;;;;41.57;26.60;;;;;;;16.27;74.36;95477.38;5073334;28;20446;-77
2022/11/09 10:16:39;;;;;;;53.07;26.13;;;;;;;16.37;73.45;95474.66;5072981;28;20851;-77
2022/11/09 10:19:27;;;;;;;41.00;26.67;;;;;;;16.40;73.68;95479.66;5072904;28;20505;-77
2022/11/09 10:22:00;;;;;;;44.37;29.27;;;;;;;16.35;73.66;95473.97;5073107;28;20925;-77
2022/11/09 10:24:40;;;;;;;45.03;27.00;;;;;;;16.29;74.13;95469.28;5073155;28;20498;-77
2022/11/09 10:27:22;;;;;;;37.60;26.47;;;;;;;16.31;73.36;95467.31;5072635;28;20501;-77
2022/11/09 10:29:50;;;;;;;43.40;26.67;;;;;;;16.33;74.05;95460.06;5072651;28;20449;-76
2022/11/09 10:32:20;;;;;;;38.17;23.07;;;;;;;16.39;74.83;95465.56;5072924;28;20454;-77
2022/11/09 10:34:54;;;;;;;39.97;22.10;;;;;;;16.35;72.05;95468.69;5072591;28;20447;-77
2022/11/09 10:37:26;;;;;;;36.73;24.00;;;;;;;16.39;72.07;95464.75;5073151;28;20504;-77
2022/11/09 10:39:59;;;;;;;37.50;24.40;;;;;;;16.48;72.25;95466.50;5072375;28;20804;-77
2022/11/09 10:42:26;;;;;;;34.63;25.07;;;;;;;16.52;71.67;95459.91;5072718;28;20490;-77
2022/11/09 10:44:53;;;;;;;38.37;25.87;;;;;;;16.59;71.57;95458.31;5072687;28;20444;-77
2022/11/09 10:47:22;;;;;;;33.33;24.03;;;;;;;16.68;70.99;95453.94;5072259;28;20451;-77
2022/11/09 10:50:07;;;;;;;34.70;24.27;;;;;;;16.69;70.14;95455.59;5072619;28;20563;-77
2022/11/09 10:52:39;;;;;;;34.80;23.63;;;;;;;16.64;69.53;95448.06;5072454;28;20516;-77
2022/11/09 10:55:26;;;;;;;39.00;22.93;;;;;;;16.60;70.03;95443.25;5072776;28;20475;-77
2022/11/09 10:57:59;;;;;;;38.63;22.60;;;;;;;16.43;69.87;95443.09;5072403;28;20444;-77
2022/11/09 11:00:27;;;;;;;32.53;22.80;;;;;;;16.60;70.15;95441.44;5072537;28;20439;-77
2022/11/09 11:02:56;;;;;;;31.93;22.63;;;;;;;16.70;69.87;95441.34;5053362;28;20575;-77
2022/11/09 11:05:33;;;;;;;45.43;24.20;;;;;;;16.77;69.72;95438.91;5072603;28;20497;-77
2022/11/09 11:08:23;;;;;;;31.37;21.67;;;;;;;16.82;69.60;95434.00;5072096;28;20444;-77
2022/11/09 11:10:50;;;;;;;42.13;24.30;;;;;;;16.81;68.66;95435.81;5072053;28;20861;-77
2022/11/09 11:13:23;;;;;;;33.30;23.70;;;;;;;16.82;69.05;95434.00;5036642;28;20460;-77
2022/11/09 11:15:50;;;;;;;31.50;21.53;;;;;;;16.81;68.52;95433.19;5072090;28;20504;-78
2022/11/09 11:18:23;;;;;;;39.90;23.17;;;;;;;16.85;69.18;95421.28;5072021;28;20441;-77
2022/11/09 11:21:05;;;;;;;43.03;22.87;;;;;;;16.83;68.63;95433.84;5072133;28;20853;-77
2022/11/09 11:23:35;;;;;;;32.70;23.67;;;;;;;16.86;69.10;95425.59;5071840;28;20491;-77